Red Lodge, MT

5:36 PM MDT on September 01, 2015 (GMT -0600)
Tipi Village Sub-Division | | Change Station
CLOSE
Current Station
Personal Weather Station
Location: Red Lodge, MT
Elevation: 5920 ft
Nearby Weather Stations
Active Advisory: Fire Weather Warning Active Notice: Public Information Statement

Elev 5920 ft 45.17 °N, 109.27 °W | Updated 1 minute ago

Clear
Clear
81.8 °F
Feels Like 79 °F
N
6.0
Wind Variable Wind from SW
Gusts 10.0 mph

Today
High -- | Low -- °F
--% Chance of Precip.
Yesterday
High -- | Low -- °F
Precip. -- in
6:38 AM 7:54 PM
Waning Gibbous, 85% visible
Pressure 29.89 in
Visibility 10.0 miles
Clouds Clear
Heat Index 79 °F
Dew Point 26 °F
Humidity 13%
Rainfall 0.00 in
Snow Depth Not available.
UV 2 out of 12
Pollen 9.10 out of 12
Air Quality Not available.
Flu Activity Not available.
METAR KCOD 012335Z AUTO 24007KT 10SM CLR 31/M01 A2989 RMK AO1
Pressure 29.89 in
Visibility 10.0 miles
Clouds Clear
Heat Index 79 °F
Dew Point 26 °F
Humidity 13%
Rainfall 0.00 in
Snow Depth Not available.
UV 2 out of 12
Pollen 9.10 out of 12
Air Quality Not available.
Flu Activity Not available.
METAR KCOD 012335Z AUTO 24007KT 10SM CLR 31/M01 A2989 RMK AO1

10-Day Weather Forecast

×

Almanac

Astronomy

Sep. 01, 2015 Rise Set
Actual Time
Civil Twilight
Nautical Twilight
Astronomical Twilight
Moon
Length of Visible Light
Length of Day
Tomorrow will be .
, % of the Moon is Illuminated

Today's Extremes

State Highs State Lows

Community

WunderPhotos

Upload Photos

1,851,643 photos uploaded!

WunderBlogs® & News

Nearby

Air Quality

  Air Quality AQ Index Pollutant
Not available.

Snow Depth

Station Depth Elevation

Earthquake Activity

City Distance Mag. Time & Date
Minimum magnitude displayed is 2.5.

Coastal Water Temperatures

Place Temperature

Stations

Nearby Weather Stations

Station Location Temp. Windchill Dew Point Humidity Wind Precip. Elev Updated Type
                   
Fire Weather Warning
Statement as of 2:37 PM MDT on September 01, 2015

... Red flag warning remains in effect from noon Wednesday to
midnight MDT Wednesday night...

* impacts: low humidities... hot temperatures... and strong gusty
winds will create critical fire weather conditions.

* Affected area:
   in south central Mt... fire weather zones 123... 124... 125 and
   126.

* Counties affected:
   in central Mt... Wheatland.
   In south central Mt... Carbon... park... Stillwater... Sweet Grass.
   In southwest Mt... Gallatin.

* Wind: southwest 15 to 25 mph with gusts up to 35 mph.

* Humidity: in the teens.

* Temperatures: upper 80s to lower 90s.

Precautionary/preparedness actions...

Be very careful with any open flames. Check with local officials
before conducting any burning.